• Join FlightAware (Why Join?)
  • Login
  • US Flag 
10:53PM EDT


 

Airport Tracker/Info


-or-


 

Live Flight TrackerFlight Track Log ✈ N42GJ ✈ 20-Jul-2013 ✈ KHTO - KMMU

Flight Track Log - Related Links

Times and Time Zones

All times are in EDT time to prevent confusion due to time zone crossing. See the N42GJ flight status page for this flight to view local times or setup timezone preferences in your user account.

Time Position Orientation Groundspeed Altitude Reporting Facility
EDT Latitude Longitude Course Direction KTS MPH feet Rate Location/Type
11:23AM 41.1713 -72.7191 303° West  Level FlightAware Approximate
11:24AM 41.2092 -72.7980 303° West  Level FlightAware Approximate
11:25AM 41.2470 -72.8770 303° West  Level FlightAware Approximate
11:26AM 41.2523 -72.9695 272° West  Level FlightAware Approximate
11:27AM 41.2548 -73.0631 272° West  Level FlightAware Approximate
11:28AM 41.2571 -73.1567 272° West  Level FlightAware Approximate
11:29AM 41.2594 -73.2504 272° West  Level FlightAware Approximate
11:30AM 41.2617 -73.3440 272° West  Level FlightAware Approximate
11:31AM 41.2638 -73.4377 272° West  Level FlightAware Approximate
11:32AM 41.2659 -73.5313 272° West  Level FlightAware Approximate
11:33AM 41.2637 -73.6248 266° West  Level FlightAware Approximate
11:34AM 41.2588 -73.7183 266° West  Level FlightAware Approximate
11:35AM 41.2538 -73.8117 266° West  Level FlightAware Approximate
11:36AM 41.2448 -73.9041 252° West  Level FlightAware Approximate
11:37AM 41.2333 -73.9953 270° West  Level FlightAware Approximate
11:38AM 41.2311 -74.0887 262° West  Level FlightAware Approximate
11:39AM 41.2219 -74.1815 262° West  Level FlightAware Approximate
11:40AM 41.2087 -74.2733 255° West  Level FlightAware Approximate
11:41AM 41.1771 -74.3548 231° Southwest  Level FlightAware Approximate
11:42AM 41.1315 -74.4259 227° Southwest  Level FlightAware Approximate
11:43AM 41.0831 -74.4938 227° Southwest  Level FlightAware Approximate
11:44AM 41.0336 -74.5223 166° South  Level FlightAware Approximate
11:45AM 40.9700 -74.4850 159° South  Level FlightAware Approximate
11:46AM 40.9020 -74.4677 159° South  Level FlightAware Approximate
11:47AM 40.8475 -74.4257 163° South  Level FlightAware Approximate
11:48AM 40.7993 -74.4149 163° South  Level Estimated
11:49AM 40.7993 -74.4149 163° South  Level Estimated
11:50AM 40.7993 -74.4149 163° South  Level Estimated
11:51AM 40.7993 -74.4149 163° South  Level Estimated
11:52AM 40.7993 -74.4149 163° South  Level Estimated
11:53AM 40.7993 -74.4149 163° South  Level Estimated
11:54AM 40.7993 -74.4149 163° South  Level Estimated
11:55AM 40.7993 -74.4149 163° South  Level Estimated
11:56AM 40.7993 -74.4149 163° South  Level Estimated
11:57AM 40.7993 -74.4149 163° South  Level Estimated
11:58AM 40.7993 -74.4149 163° South  Level Estimated
11:59AM 40.7993 -74.4149 163° South  Level Estimated
12:00PM 40.7993 -74.4149 163° South  Level Estimated
12:01PM 40.7993 -74.4149 163° South  Level Estimated
12:02PM 40.7993 -74.4149 163° South  Level Estimated
12:03PM 40.7993 -74.4149 163° South  Level Estimated
12:04PM 40.7993 -74.4149 163° South  Level Estimated